ADDS METAR Data INFO
IDs: Format: Raw Decoded Include TAF

Data at: 0254 UTC 22 Apr 2018

KCLL 220240Z AUTO VRB05KT 10SM BKN005 19/19 A2991 RMK AO2 WSHFT 0156 RAE25 P0018 T01940189
KCLL 220220Z AUTO 16010G19KT 10SM -RA SCT005 SCT021 BKN110 19/19 A2989 RMK AO2 WSHFT 0156 P0018 T01890189
KCLL 220212Z AUTO 16015G19KT 5SM -RA BR SCT006 BKN012 OVC110 19/19 A2988 RMK AO2 WSHFT 0156 P0018 T01940194
KCLL 220207Z AUTO 14013KT 2SM RA BR SCT006 BKN022 OVC110 19/19 A2988 RMK AO2 PRESFR P0018 T01940194
KCLL 220153Z AUTO 19007KT 1 3/4SM +RA BR BKN007 OVC012 20/20 A2992 RMK AO2 PRESRR SLP129 P0042 T02000200
KCLL 220149Z 20006KT 1 3/4SM +RA BR SCT007 BKN012 OVC018 20/20 A2992 RMK AO2 PRESRR P0036
KCLL 220143Z 18008KT 2 1/2SM +RA BR BKN007 OVC015 21/20 A2990 RMK AO2 LTG DSNT N P0027 T02060200
KCLL 220135Z 16006KT 2 1/2SM +RA BR SCT007 OVC012 21/20 A2989 RMK AO2 LTG DSNT N P0022 T02060200
KCLL 220125Z 15007KT 3SM +RA BR BKN010 OVC015 21/20 A2989 RMK AO2 LTG DSNT SE P0015 T02060200
KCLL 220116Z 12004KT 2 1/2SM +RA BR BKN012 OVC019 21/20 A2988 RMK AO2 LTG DSNT E-SW P0011 T02060200
KCLL 220053Z 12004KT 6SM -RA BR BKN013 OVC018 21/21 A2988 RMK AO2 LTG DSNT NE-S RAB00 TSB2357E27 SLP114 P0015 T02060206
KCLL 220046Z 12003KT 8SM -RA OVC013 21/21 A2987 RMK AO2 LTG DSNT NE-S RAB00 TSB2357E27 P0014 T02110206
KCLL 220033Z 00000KT 6SM -RA BR BKN015 OVC028 21/21 A2988 RMK AO2 LTG DSNT NE-S RAB00 TSB2357E27 P0014 T02110206
KCLL 220019Z 00000KT 3SM TSRA BR BKN017 BKN024 OVC029 21/21 A2987 RMK AO2 LTG DSNT NE-S RAB00 TSB2357 P0013 T02110206
KCLL 220007Z VRB03KT 1 3/4SM +TSRA BR BKN017 BKN025 OVC030 21/21 A2988 RMK AO2 LTG DSNT SE AND S RAB00 TSB2357 P0010 T02110206
KCLL 220003Z 16010KT 7SM -TSRA BKN017 BKN023 OVC031 21/21 A2988 RMK AO2 LTG DSNT SE AND S RAB00 TSB2357 P0000 T02110206
KCLL 212353Z 11006KT 6SM VCTS BR FEW017 BKN023 OVC039 21/21 A2987 RMK AO2 LTG DSNT S SLP113 60006 T02110206 10211 20194 58012
KCLL 212313Z 13007KT 5SM BR FEW007 BKN024 OVC030 21/21 A2988 RMK AO2 T02110206
KCLL 212253Z 15005KT 5SM BR SCT006 BKN014 OVC020 21/20 A2990 RMK AO2 RAE40 SLP121 P0003 T02060200
KCLL 212251Z 15005KT 5SM BR SCT005 BKN014 OVC020 21/20 A2990 RMK AO2 RAE40 P0003
KCLL 212238Z 15004KT 4SM -RA BR SCT005 BKN020 OVC025 21/20 A2989 RMK AO2 P0003 T02060200
KCLL 212229Z 13006KT 2SM -RA BR FEW006 SCT014 OVC025 21/20 A2989 RMK AO2 P0003 T02060200
KCLL 212219Z 12008KT 2 1/2SM -RA BR SCT006 BKN014 OVC039 20/20 A2988 RMK AO2 LTG DSNT NE P0002 T02000200
KCLL 212153Z 15009KT 3SM -RA BR FEW006 BKN027 OVC043 20/20 A2991 RMK AO2 RAB06 SLP125 P0003 T02000200
KCLL 212149Z 14008KT 2 1/2SM -RA BR FEW006 BKN027 OVC045 20/20 A2991 RMK AO2 RAB06 P0003
KCLL 212131Z 14011KT 6SM -RA BR FEW008 BKN028 OVC038 21/19 A2991 RMK AO2 RAB06 P0000 T02060194
KCLL 212122Z 14010KT 8SM -RA FEW010 SCT021 OVC038 21/19 A2991 RMK AO2 RAB06 P0000 T02060194
KCLL 212111Z 14010KT 5SM -RA BR FEW010 BKN023 OVC049 21/19 A2991 RMK AO2 RAB06 P0000 T02060194
KCLL 212053Z 14010KT 9SM FEW021 SCT048 OVC060 21/19 A2992 RMK AO2 RAE29 SLP130 P0000 60000 T02060194 56021
KCLL 211953Z 15011KT 9SM -RA FEW034 OVC075 21/19 A2994 RMK AO2 RAB04 SLP134 P0000 T02060189
KCLL 211853Z 14008KT 9SM FEW041 BKN050 OVC060 20/18 A2997 RMK AO2 RAE06 SLP145 P0000 T02000183
KCLL 211802Z 14008KT 8SM -RA FEW016 BKN038 OVC049 19/18 A2998 RMK AO2 P0000 T01940178
KCLL 211753Z 13008KT 5SM -RA BR SCT016 BKN029 OVC037 19/18 A2999 RMK AO2 RAB18 SLP151 P0000 60000 T01940178 10200 20150 56010
KCLL 211750Z 12009KT 6SM -RA BR SCT018 BKN029 OVC037 19/18 A2999 RMK AO2 RAB18 P0000
KCLL 211653Z 13007KT 9SM SCT020 BKN034 OVC050 19/17 A3001 RMK AO2 RAB42E53 SLP161 P0000 T01940167
KCLL 211650Z 13009KT 7SM -RA SCT020 BKN032 OVC050 19/17 A3002 RMK AO2 RAB42 P0000
KCLL 211553Z 11010KT 10SM BKN016 BKN030 OVC065 20/16 A3002 RMK AO2 SLP162 T02000156
KCLL 211453Z 11010G18KT 10SM SCT018 BKN024 OVC029 18/14 A3003 RMK AO2 SLP165 60000 T01780139 58000
KCLL 211353Z 09009KT 10SM OVC016 16/13 A3004 RMK AO2 RAE1255 SLP169 P0000 T01610128
KCLL 211253Z 06006KT 10SM -RA OVC015 15/12 A3004 RMK AO2 RAB46 SLP169 P0000 T01500122
KCLL 211153Z AUTO 06005KT 10SM OVC015 16/12 A3003 RMK AO2 SLP166 T01560122 10156 20122 53012
KCLL 211053Z AUTO 07006KT 10SM OVC017 15/12 A3001 RMK AO2 SLP159 T01500122
KCLL 210953Z AUTO 09006KT 10SM BKN017 OVC036 14/12 A2999 RMK AO2 SLP154 T01440122
KCLL 210950Z AUTO 08007KT 10SM BKN017 OVC036 14/12 A2999 RMK AO2
KCLL 210853Z AUTO 09008KT 10SM OVC032 13/11 A3000 RMK AO2 SLP157 T01330111 58018
KCLL 210753Z AUTO 07008KT 10SM OVC030 13/11 A3003 RMK AO2 SLP167 T01280106
KCLL 210749Z AUTO 07007KT 10SM BKN030 OVC050 13/11 A3003 RMK AO2
KCLL 210740Z AUTO 08007KT 10SM BKN029 BKN050 12/11 A3005 RMK AO2 T01220106
KCLL 210653Z AUTO 10005KT 10SM CLR 13/10 A3006 RMK AO2 SLP176 T01280100
KCLL 210553Z AUTO 13005KT 10SM CLR 12/10 A3008 RMK AO2 SLP184 T01220100 10172 20122 401940117 58010
KCLL 210453Z AUTO 12005KT 10SM CLR 13/09 A3009 RMK AO2 SLP186 T01330094
KCLL 210353Z AUTO 10007KT 10SM CLR 14/09 A3011 RMK AO2 SLP193 T01390094
KCLL 210253Z AUTO 08005KT 10SM CLR 14/09 A3011 RMK AO2 SLP195 T01440089 53002
KCLL 210153Z 10005KT 10SM CLR 16/09 A3010 RMK AO2 SLP190 T01560089
KCLL 210053Z 13007KT 10SM CLR 16/08 A3011 RMK AO2 SLP196 T01610083
KCLL 202353Z 12010KT 10SM CLR 17/08 A3011 RMK AO2 SLP193 T01720083 10194 20161 56014
KCLL 202253Z 15009KT 10SM CLR 18/07 A3012 RMK AO2 SLP198 T01780072
KCLL 202153Z 12009KT 10SM CLR 18/07 A3013 RMK AO2 SLP201 T01830072
KCLL 202053Z 11009KT 10SM CLR 19/07 A3015 RMK AO2 SLP207 T01890072 56028
KCLL 201953Z 10005KT 10SM CLR 18/06 A3017 RMK AO2 SLP214 T01830061
KCLL 201853Z 10011KT 10SM CLR 17/05 A3021 RMK AO2 SLP226 T01720050
KCLL 201753Z 10010KT 10SM CLR 16/05 A3024 RMK AO2 SLP236 T01610050 10167 20117 58015
KCLL 201653Z 10009KT 10SM CLR 17/05 A3028 RMK AO2 SLP251 T01670050
KCLL 201553Z 10009KT 10SM CLR 16/05 A3029 RMK AO2 SLP255 T01610050